sensor_id;sensor_type;location;lat;lon;timestamp;P1;durP1;ratioP1;P2;durP2;ratioP2
52041;SDS011;38052;45.944;13.624;2023-04-24T00:00:15;8.45;;;5.72;;
52041;SDS011;38052;45.944;13.624;2023-04-24T00:02:42;6.43;;;5.28;;
52041;SDS011;38052;45.944;13.624;2023-04-24T00:05:13;7.83;;;5.63;;
52041;SDS011;38052;45.944;13.624;2023-04-24T00:07:40;7.57;;;5.15;;
52041;SDS011;38052;45.944;13.624;2023-04-24T00:10:06;8.43;;;4.70;;
52041;SDS011;38052;45.944;13.624;2023-04-24T00:12:33;7.72;;;4.75;;
52041;SDS011;38052;45.944;13.624;2023-04-24T00:14:59;7.55;;;4.00;;
52041;SDS011;38052;45.944;13.624;2023-04-24T00:17:25;9.25;;;5.68;;
52041;SDS011;38052;45.944;13.624;2023-04-24T00:19:51;7.90;;;5.90;;
52041;SDS011;38052;45.944;13.624;2023-04-24T00:22:23;10.27;;;6.35;;
52041;SDS011;38052;45.944;13.624;2023-04-24T00:24:49;8.18;;;5.43;;
52041;SDS011;38052;45.944;13.624;2023-04-24T00:27:16;7.97;;;5.10;;
52041;SDS011;38052;45.944;13.624;2023-04-24T00:29:42;9.02;;;5.38;;
52041;SDS011;38052;45.944;13.624;2023-04-24T00:32:09;11.35;;;5.72;;
52041;SDS011;38052;45.944;13.624;2023-04-24T00:34:35;10.70;;;5.07;;
52041;SDS011;38052;45.944;13.624;2023-04-24T00:37:01;10.30;;;5.30;;
52041;SDS011;38052;45.944;13.624;2023-04-24T00:39:27;7.97;;;5.85;;
52041;SDS011;38052;45.944;13.624;2023-04-24T00:41:53;7.25;;;4.70;;
52041;SDS011;38052;45.944;13.624;2023-04-24T00:44:20;6.40;;;4.70;;
52041;SDS011;38052;45.944;13.624;2023-04-24T00:46:46;7.88;;;4.25;;
52041;SDS011;38052;45.944;13.624;2023-04-24T00:49:17;5.53;;;4.07;;
52041;SDS011;38052;45.944;13.624;2023-04-24T00:51:44;7.57;;;5.20;;
52041;SDS011;38052;45.944;13.624;2023-04-24T00:54:11;8.70;;;5.32;;
52041;SDS011;38052;45.944;13.624;2023-04-24T00:56:37;4.97;;;4.43;;
52041;SDS011;38052;45.944;13.624;2023-04-24T00:59:04;10.23;;;4.05;;
52041;SDS011;38052;45.944;13.624;2023-04-24T01:01:30;4.43;;;3.80;;
52041;SDS011;38052;45.944;13.624;2023-04-24T01:03:57;9.18;;;3.67;;
52041;SDS011;38052;45.944;13.624;2023-04-24T01:06:27;7.05;;;3.85;;
52041;SDS011;38052;45.944;13.624;2023-04-24T01:08:54;8.55;;;3.72;;
52041;SDS011;38052;45.944;13.624;2023-04-24T01:11:23;7.88;;;4.15;;
52041;SDS011;38052;45.944;13.624;2023-04-24T01:13:51;5.03;;;4.20;;
52041;SDS011;38052;45.944;13.624;2023-04-24T01:16:18;7.25;;;3.72;;
52041;SDS011;38052;45.944;13.624;2023-04-24T01:18:46;6.22;;;3.67;;
52041;SDS011;38052;45.944;13.624;2023-04-24T01:21:13;5.93;;;4.45;;
52041;SDS011;38052;45.944;13.624;2023-04-24T01:23:39;6.18;;;4.15;;
52041;SDS011;38052;45.944;13.624;2023-04-24T01:26:06;8.35;;;4.95;;
52041;SDS011;38052;45.944;13.624;2023-04-24T01:28:32;7.55;;;3.67;;
52041;SDS011;38052;45.944;13.624;2023-04-24T01:30:59;9.20;;;3.95;;
52041;SDS011;38052;45.944;13.624;2023-04-24T01:33:25;7.18;;;4.32;;
52041;SDS011;38052;45.944;13.624;2023-04-24T01:35:52;7.70;;;4.15;;
52041;SDS011;38052;45.944;13.624;2023-04-24T01:38:19;4.38;;;3.50;;
52041;SDS011;38052;45.944;13.624;2023-04-24T01:40:45;6.13;;;3.42;;
52041;SDS011;38052;45.944;13.624;2023-04-24T01:43:12;5.00;;;3.83;;
52041;SDS011;38052;45.944;13.624;2023-04-24T01:45:38;6.78;;;3.95;;
52041;SDS011;38052;45.944;13.624;2023-04-24T01:48:05;7.97;;;4.00;;
52041;SDS011;38052;45.944;13.624;2023-04-24T01:50:32;6.00;;;3.67;;
52041;SDS011;38052;45.944;13.624;2023-04-24T01:52:58;5.18;;;3.92;;
52041;SDS011;38052;45.944;13.624;2023-04-24T01:55:24;6.72;;;3.42;;
52041;SDS011;38052;45.944;13.624;2023-04-24T01:57:51;5.43;;;3.15;;
52041;SDS011;38052;45.944;13.624;2023-04-24T02:00:18;5.60;;;3.53;;
52041;SDS011;38052;45.944;13.624;2023-04-24T02:02:44;5.88;;;3.40;;
52041;SDS011;38052;45.944;13.624;2023-04-24T02:05:11;3.95;;;3.03;;
52041;SDS011;38052;45.944;13.624;2023-04-24T02:07:37;5.72;;;3.28;;
52041;SDS011;38052;45.944;13.624;2023-04-24T02:10:04;7.93;;;3.97;;
52041;SDS011;38052;45.944;13.624;2023-04-24T02:12:30;5.80;;;3.60;;
52041;SDS011;38052;45.944;13.624;2023-04-24T02:14:56;5.55;;;3.95;;
52041;SDS011;38052;45.944;13.624;2023-04-24T02:17:22;7.30;;;3.83;;
52041;SDS011;38052;45.944;13.624;2023-04-24T02:19:51;5.72;;;4.50;;
52041;SDS011;38052;45.944;13.624;2023-04-24T02:22:18;6.88;;;4.18;;
52041;SDS011;38052;45.944;13.624;2023-04-24T02:24:45;4.88;;;2.80;;
52041;SDS011;38052;45.944;13.624;2023-04-24T02:27:11;5.35;;;3.55;;
52041;SDS011;38052;45.944;13.624;2023-04-24T02:29:38;5.32;;;4.30;;
52041;SDS011;38052;45.944;13.624;2023-04-24T02:32:04;5.05;;;3.35;;
52041;SDS011;38052;45.944;13.624;2023-04-24T02:34:31;7.00;;;4.07;;
52041;SDS011;38052;45.944;13.624;2023-04-24T02:36:57;6.40;;;3.85;;
52041;SDS011;38052;45.944;13.624;2023-04-24T02:39:26;5.95;;;4.22;;
52041;SDS011;38052;45.944;13.624;2023-04-24T02:41:52;6.95;;;4.10;;
52041;SDS011;38052;45.944;13.624;2023-04-24T02:44:18;5.70;;;3.50;;
52041;SDS011;38052;45.944;13.624;2023-04-24T02:46:44;6.43;;;4.07;;
52041;SDS011;38052;45.944;13.624;2023-04-24T02:49:11;5.80;;;4.28;;
52041;SDS011;38052;45.944;13.624;2023-04-24T02:51:37;7.75;;;3.83;;
52041;SDS011;38052;45.944;13.624;2023-04-24T02:54:06;5.15;;;3.70;;
52041;SDS011;38052;45.944;13.624;2023-04-24T02:56:32;11.35;;;3.75;;
52041;SDS011;38052;45.944;13.624;2023-04-24T02:58:59;5.75;;;3.35;;
52041;SDS011;38052;45.944;13.624;2023-04-24T03:01:25;6.88;;;5.10;;
52041;SDS011;38052;45.944;13.624;2023-04-24T03:03:52;5.03;;;3.28;;
52041;SDS011;38052;45.944;13.624;2023-04-24T03:06:19;6.13;;;3.13;;
52041;SDS011;38052;45.944;13.624;2023-04-24T03:08:46;6.00;;;3.35;;
52041;SDS011;38052;45.944;13.624;2023-04-24T03:11:12;4.35;;;2.38;;
52041;SDS011;38052;45.944;13.624;2023-04-24T03:13:39;11.10;;;3.40;;
52041;SDS011;38052;45.944;13.624;2023-04-24T03:16:05;5.53;;;3.22;;
52041;SDS011;38052;45.944;13.624;2023-04-24T03:18:32;6.90;;;3.30;;
52041;SDS011;38052;45.944;13.624;2023-04-24T03:20:58;7.10;;;3.20;;
52041;SDS011;38052;45.944;13.624;2023-04-24T03:23:24;4.30;;;3.05;;
52041;SDS011;38052;45.944;13.624;2023-04-24T03:25:51;8.15;;;3.65;;
52041;SDS011;38052;45.944;13.624;2023-04-24T03:28:17;7.75;;;3.47;;
52041;SDS011;38052;45.944;13.624;2023-04-24T03:30:44;6.60;;;3.60;;
52041;SDS011;38052;45.944;13.624;2023-04-24T03:33:11;8.73;;;3.80;;
52041;SDS011;38052;45.944;13.624;2023-04-24T03:35:37;6.97;;;3.08;;
52041;SDS011;38052;45.944;13.624;2023-04-24T03:38:03;4.45;;;3.42;;
52041;SDS011;38052;45.944;13.624;2023-04-24T03:40:30;5.90;;;3.30;;
52041;SDS011;38052;45.944;13.624;2023-04-24T03:42:58;7.18;;;3.47;;
52041;SDS011;38052;45.944;13.624;2023-04-24T03:45:24;7.38;;;3.17;;
52041;SDS011;38052;45.944;13.624;2023-04-24T03:47:51;3.88;;;2.67;;
52041;SDS011;38052;45.944;13.624;2023-04-24T03:50:17;5.32;;;2.72;;
52041;SDS011;38052;45.944;13.624;2023-04-24T03:52:44;7.35;;;3.25;;
52041;SDS011;38052;45.944;13.624;2023-04-24T03:55:10;7.75;;;3.17;;
52041;SDS011;38052;45.944;13.624;2023-04-24T03:57:38;5.03;;;2.72;;
52041;SDS011;38052;45.944;13.624;2023-04-24T04:00:04;9.73;;;2.70;;
52041;SDS011;38052;45.944;13.624;2023-04-24T04:02:31;5.05;;;2.80;;
52041;SDS011;38052;45.944;13.624;2023-04-24T04:04:57;6.20;;;3.10;;
52041;SDS011;38052;45.944;13.624;2023-04-24T04:07:23;9.07;;;3.10;;
52041;SDS011;38052;45.944;13.624;2023-04-24T04:09:50;4.78;;;2.72;;
52041;SDS011;38052;45.944;13.624;2023-04-24T04:12:16;5.20;;;3.03;;
52041;SDS011;38052;45.944;13.624;2023-04-24T04:14:42;5.90;;;3.63;;
52041;SDS011;38052;45.944;13.624;2023-04-24T04:17:09;4.25;;;3.22;;
52041;SDS011;38052;45.944;13.624;2023-04-24T04:19:36;7.10;;;3.15;;
52041;SDS011;38052;45.944;13.624;2023-04-24T04:22:02;6.93;;;3.22;;
52041;SDS011;38052;45.944;13.624;2023-04-24T04:24:29;5.72;;;2.63;;
52041;SDS011;38052;45.944;13.624;2023-04-24T04:26:55;7.47;;;2.83;;
52041;SDS011;38052;45.944;13.624;2023-04-24T04:29:23;5.72;;;2.97;;
52041;SDS011;38052;45.944;13.624;2023-04-24T04:31:49;17.70;;;3.70;;
52041;SDS011;38052;45.944;13.624;2023-04-24T04:34:15;10.25;;;3.60;;
52041;SDS011;38052;45.944;13.624;2023-04-24T04:36:41;5.07;;;2.85;;
52041;SDS011;38052;45.944;13.624;2023-04-24T04:39:08;6.55;;;3.10;;
52041;SDS011;38052;45.944;13.624;2023-04-24T04:41:35;6.93;;;3.25;;
52041;SDS011;38052;45.944;13.624;2023-04-24T04:44:01;6.15;;;2.80;;
52041;SDS011;38052;45.944;13.624;2023-04-24T04:46:29;12.95;;;3.00;;
52041;SDS011;38052;45.944;13.624;2023-04-24T04:48:57;9.85;;;3.38;;
52041;SDS011;38052;45.944;13.624;2023-04-24T04:51:23;8.63;;;3.10;;
52041;SDS011;38052;45.944;13.624;2023-04-24T04:53:50;6.28;;;3.42;;
52041;SDS011;38052;45.944;13.624;2023-04-24T04:56:19;4.25;;;2.72;;
52041;SDS011;38052;45.944;13.624;2023-04-24T04:58:46;6.03;;;3.83;;
52041;SDS011;38052;45.944;13.624;2023-04-24T05:01:13;8.77;;;3.00;;
52041;SDS011;38052;45.944;13.624;2023-04-24T05:03:39;7.95;;;3.53;;
52041;SDS011;38052;45.944;13.624;2023-04-24T05:06:06;6.75;;;3.33;;
52041;SDS011;38052;45.944;13.624;2023-04-24T05:08:32;7.63;;;3.42;;
52041;SDS011;38052;45.944;13.624;2023-04-24T05:10:59;8.02;;;3.40;;
52041;SDS011;38052;45.944;13.624;2023-04-24T05:13:25;5.43;;;2.65;;
52041;SDS011;38052;45.944;13.624;2023-04-24T05:15:51;5.53;;;3.08;;
52041;SDS011;38052;45.944;13.624;2023-04-24T05:18:18;8.10;;;3.40;;
52041;SDS011;38052;45.944;13.624;2023-04-24T05:20:44;9.07;;;2.88;;
52041;SDS011;38052;45.944;13.624;2023-04-24T05:23:10;4.38;;;2.85;;
52041;SDS011;38052;45.944;13.624;2023-04-24T05:25:36;4.50;;;3.08;;
52041;SDS011;38052;45.944;13.624;2023-04-24T05:28:04;7.28;;;2.92;;
52041;SDS011;38052;45.944;13.624;2023-04-24T05:30:30;11.68;;;3.67;;
52041;SDS011;38052;45.944;13.624;2023-04-24T05:32:56;6.18;;;2.63;;
52041;SDS011;38052;45.944;13.624;2023-04-24T05:35:25;5.38;;;2.92;;
52041;SDS011;38052;45.944;13.624;2023-04-24T05:37:51;4.68;;;2.72;;
52041;SDS011;38052;45.944;13.624;2023-04-24T05:40:18;5.82;;;3.45;;
52041;SDS011;38052;45.944;13.624;2023-04-24T05:42:44;7.00;;;3.35;;
52041;SDS011;38052;45.944;13.624;2023-04-24T05:45:10;8.40;;;4.00;;
52041;SDS011;38052;45.944;13.624;2023-04-24T05:47:41;4.35;;;2.90;;
52041;SDS011;38052;45.944;13.624;2023-04-24T05:50:08;4.53;;;2.72;;
52041;SDS011;38052;45.944;13.624;2023-04-24T05:52:34;6.50;;;3.03;;
52041;SDS011;38052;45.944;13.624;2023-04-24T05:55:00;7.32;;;2.95;;
52041;SDS011;38052;45.944;13.624;2023-04-24T05:57:30;6.65;;;3.58;;
52041;SDS011;38052;45.944;13.624;2023-04-24T05:59:56;7.57;;;3.03;;
52041;SDS011;38052;45.944;13.624;2023-04-24T06:02:23;9.50;;;2.92;;
52041;SDS011;38052;45.944;13.624;2023-04-24T06:04:50;8.52;;;3.50;;
52041;SDS011;38052;45.944;13.624;2023-04-24T06:07:16;8.27;;;3.22;;
52041;SDS011;38052;45.944;13.624;2023-04-24T06:09:42;9.15;;;2.78;;
52041;SDS011;38052;45.944;13.624;2023-04-24T06:12:09;7.95;;;3.08;;
52041;SDS011;38052;45.944;13.624;2023-04-24T06:14:35;7.85;;;2.97;;
52041;SDS011;38052;45.944;13.624;2023-04-24T06:17:05;6.88;;;3.70;;
52041;SDS011;38052;45.944;13.624;2023-04-24T06:19:32;9.90;;;4.25;;
52041;SDS011;38052;45.944;13.624;2023-04-24T06:21:59;5.95;;;3.30;;
52041;SDS011;38052;45.944;13.624;2023-04-24T06:24:28;13.02;;;3.55;;
52041;SDS011;38052;45.944;13.624;2023-04-24T06:26:54;9.30;;;3.42;;
52041;SDS011;38052;45.944;13.624;2023-04-24T06:29:22;11.13;;;4.00;;
52041;SDS011;38052;45.944;13.624;2023-04-24T06:31:48;9.45;;;4.13;;
52041;SDS011;38052;45.944;13.624;2023-04-24T06:34:15;7.03;;;3.67;;
52041;SDS011;38052;45.944;13.624;2023-04-24T06:36:41;8.55;;;4.10;;
52041;SDS011;38052;45.944;13.624;2023-04-24T06:39:07;6.47;;;3.85;;
52041;SDS011;38052;45.944;13.624;2023-04-24T06:41:34;6.10;;;4.10;;
52041;SDS011;38052;45.944;13.624;2023-04-24T06:44:00;7.47;;;4.13;;
52041;SDS011;38052;45.944;13.624;2023-04-24T06:46:27;11.85;;;4.35;;
52041;SDS011;38052;45.944;13.624;2023-04-24T06:48:54;5.75;;;4.30;;
52041;SDS011;38052;45.944;13.624;2023-04-24T06:51:23;11.48;;;4.07;;
52041;SDS011;38052;45.944;13.624;2023-04-24T06:53:51;7.65;;;4.72;;
52041;SDS011;38052;45.944;13.624;2023-04-24T06:56:17;11.00;;;4.60;;
52041;SDS011;38052;45.944;13.624;2023-04-24T06:58:43;11.40;;;4.78;;
52041;SDS011;38052;45.944;13.624;2023-04-24T07:01:10;8.50;;;4.10;;
52041;SDS011;38052;45.944;13.624;2023-04-24T07:03:36;9.25;;;4.60;;
52041;SDS011;38052;45.944;13.624;2023-04-24T07:06:04;5.53;;;4.25;;
52041;SDS011;38052;45.944;13.624;2023-04-24T07:08:30;15.48;;;5.35;;
52041;SDS011;38052;45.944;13.624;2023-04-24T07:10:58;8.75;;;4.00;;
52041;SDS011;38052;45.944;13.624;2023-04-24T07:13:24;13.27;;;4.88;;
52041;SDS011;38052;45.944;13.624;2023-04-24T07:15:51;14.90;;;4.57;;
52041;SDS011;38052;45.944;13.624;2023-04-24T07:18:19;7.68;;;4.55;;
52041;SDS011;38052;45.944;13.624;2023-04-24T07:20:46;15.32;;;5.63;;
52041;SDS011;38052;45.944;13.624;2023-04-24T07:23:12;10.50;;;4.60;;
52041;SDS011;38052;45.944;13.624;2023-04-24T07:25:38;12.70;;;5.60;;
52041;SDS011;38052;45.944;13.624;2023-04-24T07:28:04;13.38;;;5.65;;
52041;SDS011;38052;45.944;13.624;2023-04-24T07:30:31;13.25;;;5.50;;
52041;SDS011;38052;45.944;13.624;2023-04-24T07:32:58;7.65;;;4.72;;
52041;SDS011;38052;45.944;13.624;2023-04-24T07:35:25;8.27;;;4.93;;
52041;SDS011;38052;45.944;13.624;2023-04-24T07:37:52;9.23;;;5.70;;
52041;SDS011;38052;45.944;13.624;2023-04-24T07:40:19;11.90;;;5.05;;
52041;SDS011;38052;45.944;13.624;2023-04-24T07:42:45;11.38;;;4.95;;
52041;SDS011;38052;45.944;13.624;2023-04-24T07:45:13;10.40;;;5.93;;
52041;SDS011;38052;45.944;13.624;2023-04-24T07:47:40;12.85;;;5.30;;
52041;SDS011;38052;45.944;13.624;2023-04-24T07:50:08;9.20;;;5.55;;
52041;SDS011;38052;45.944;13.624;2023-04-24T07:52:35;10.95;;;5.40;;
52041;SDS011;38052;45.944;13.624;2023-04-24T07:55:01;8.50;;;5.25;;
52041;SDS011;38052;45.944;13.624;2023-04-24T07:57:28;10.00;;;4.93;;
52041;SDS011;38052;45.944;13.624;2023-04-24T07:59:55;7.13;;;4.40;;
52041;SDS011;38052;45.944;13.624;2023-04-24T08:02:21;12.15;;;4.18;;
52041;SDS011;38052;45.944;13.624;2023-04-24T08:04:52;11.73;;;5.22;;
52041;SDS011;38052;45.944;13.624;2023-04-24T08:07:19;8.98;;;5.43;;
52041;SDS011;38052;45.944;13.624;2023-04-24T08:09:45;10.65;;;4.90;;
52041;SDS011;38052;45.944;13.624;2023-04-24T08:12:11;8.15;;;4.45;;
52041;SDS011;38052;45.944;13.624;2023-04-24T08:14:37;8.75;;;4.93;;
52041;SDS011;38052;45.944;13.624;2023-04-24T08:17:04;8.02;;;5.28;;
52041;SDS011;38052;45.944;13.624;2023-04-24T08:19:30;7.60;;;5.45;;
52041;SDS011;38052;45.944;13.624;2023-04-24T08:21:57;9.90;;;5.32;;
52041;SDS011;38052;45.944;13.624;2023-04-24T08:24:24;6.60;;;4.20;;
52041;SDS011;38052;45.944;13.624;2023-04-24T08:26:50;10.98;;;4.60;;
52041;SDS011;38052;45.944;13.624;2023-04-24T08:29:18;7.45;;;4.53;;
52041;SDS011;38052;45.944;13.624;2023-04-24T08:31:45;11.93;;;4.65;;
52041;SDS011;38052;45.944;13.624;2023-04-24T08:34:11;12.07;;;3.75;;
52041;SDS011;38052;45.944;13.624;2023-04-24T08:36:37;8.88;;;4.13;;
52041;SDS011;38052;45.944;13.624;2023-04-24T08:39:05;12.93;;;4.03;;
52041;SDS011;38052;45.944;13.624;2023-04-24T08:41:32;10.00;;;4.15;;
52041;SDS011;38052;45.944;13.624;2023-04-24T08:43:59;6.97;;;3.85;;
52041;SDS011;38052;45.944;13.624;2023-04-24T08:46:26;10.23;;;4.53;;
52041;SDS011;38052;45.944;13.624;2023-04-24T08:48:53;9.75;;;3.75;;
52041;SDS011;38052;45.944;13.624;2023-04-24T08:51:19;8.88;;;3.97;;
52041;SDS011;38052;45.944;13.624;2023-04-24T08:53:46;7.63;;;3.78;;
52041;SDS011;38052;45.944;13.624;2023-04-24T08:56:12;5.00;;;2.75;;
52041;SDS011;38052;45.944;13.624;2023-04-24T08:58:39;4.68;;;3.10;;
52041;SDS011;38052;45.944;13.624;2023-04-24T09:01:06;5.15;;;2.95;;
52041;SDS011;38052;45.944;13.624;2023-04-24T09:03:33;10.90;;;4.25;;
52041;SDS011;38052;45.944;13.624;2023-04-24T09:05:59;6.90;;;3.95;;
52041;SDS011;38052;45.944;13.624;2023-04-24T09:08:26;10.93;;;3.53;;
52041;SDS011;38052;45.944;13.624;2023-04-24T09:10:54;7.22;;;4.55;;
52041;SDS011;38052;45.944;13.624;2023-04-24T09:13:20;6.80;;;3.90;;
52041;SDS011;38052;45.944;13.624;2023-04-24T09:15:47;8.27;;;4.22;;
52041;SDS011;38052;45.944;13.624;2023-04-24T09:18:13;9.48;;;5.13;;
52041;SDS011;38052;45.944;13.624;2023-04-24T09:20:59;14.13;;;4.93;;
52041;SDS011;38052;45.944;13.624;2023-04-24T09:23:26;8.90;;;4.55;;
52041;SDS011;38052;45.944;13.624;2023-04-24T09:25:54;13.80;;;4.80;;
52041;SDS011;38052;45.944;13.624;2023-04-24T09:28:25;9.52;;;5.45;;
52041;SDS011;38052;45.944;13.624;2023-04-24T09:33:36;8.68;;;4.72;;
52041;SDS011;38052;45.944;13.624;2023-04-24T09:36:03;8.15;;;4.13;;
52041;SDS011;38052;45.944;13.624;2023-04-24T09:38:36;5.35;;;3.80;;
52041;SDS011;38052;45.944;13.624;2023-04-24T09:41:02;12.02;;;3.58;;
52041;SDS011;38052;45.944;13.624;2023-04-24T09:43:30;9.43;;;4.35;;
52041;SDS011;38052;45.944;13.624;2023-04-24T09:45:56;9.13;;;4.78;;
52041;SDS011;38052;45.944;13.624;2023-04-24T09:48:33;6.78;;;4.75;;
52041;SDS011;38052;45.944;13.624;2023-04-24T09:51:00;7.50;;;4.35;;
52041;SDS011;38052;45.944;13.624;2023-04-24T09:53:26;10.65;;;5.13;;
52041;SDS011;38052;45.944;13.624;2023-04-24T09:55:53;13.32;;;4.95;;
52041;SDS011;38052;45.944;13.624;2023-04-24T09:58:28;9.18;;;4.80;;
52041;SDS011;38052;45.944;13.624;2023-04-24T10:00:55;7.80;;;5.05;;
52041;SDS011;38052;45.944;13.624;2023-04-24T10:03:25;10.77;;;4.75;;
52041;SDS011;38052;45.944;13.624;2023-04-24T10:05:52;11.32;;;4.85;;
52041;SDS011;38052;45.944;13.624;2023-04-24T10:08:18;11.57;;;5.07;;
52041;SDS011;38052;45.944;13.624;2023-04-24T10:10:45;13.27;;;4.95;;
52041;SDS011;38052;45.944;13.624;2023-04-24T10:13:12;10.52;;;5.15;;
52041;SDS011;38052;45.944;13.624;2023-04-24T10:15:40;8.77;;;4.75;;
52041;SDS011;38052;45.944;13.624;2023-04-24T10:18:06;9.80;;;5.35;;
52041;SDS011;38052;45.944;13.624;2023-04-24T10:20:34;8.85;;;5.50;;
52041;SDS011;38052;45.944;13.624;2023-04-24T10:23:00;10.15;;;5.20;;
52041;SDS011;38052;45.944;13.624;2023-04-24T10:25:30;12.85;;;6.22;;
52041;SDS011;38052;45.944;13.624;2023-04-24T10:27:58;6.60;;;4.95;;
52041;SDS011;38052;45.944;13.624;2023-04-24T10:30:25;10.95;;;5.60;;
52041;SDS011;38052;45.944;13.624;2023-04-24T10:32:52;6.15;;;3.95;;
52041;SDS011;38052;45.944;13.624;2023-04-24T10:35:19;9.57;;;4.38;;
52041;SDS011;38052;45.944;13.624;2023-04-24T10:37:50;4.40;;;3.28;;
52041;SDS011;38052;45.944;13.624;2023-04-24T10:40:18;6.82;;;3.85;;
52041;SDS011;38052;45.944;13.624;2023-04-24T10:42:48;6.65;;;3.25;;
52041;SDS011;38052;45.944;13.624;2023-04-24T10:45:18;4.63;;;3.50;;
52041;SDS011;38052;45.944;13.624;2023-04-24T10:47:52;5.28;;;3.38;;
52041;SDS011;38052;45.944;13.624;2023-04-24T10:50:19;5.18;;;3.63;;
52041;SDS011;38052;45.944;13.624;2023-04-24T10:52:46;6.43;;;3.75;;
52041;SDS011;38052;45.944;13.624;2023-04-24T10:55:13;11.88;;;4.28;;
52041;SDS011;38052;45.944;13.624;2023-04-24T10:57:40;9.55;;;4.28;;
52041;SDS011;38052;45.944;13.624;2023-04-24T11:00:26;6.20;;;3.50;;
52041;SDS011;38052;45.944;13.624;2023-04-24T11:02:53;9.20;;;3.47;;
52041;SDS011;38052;45.944;13.624;2023-04-24T11:05:21;6.82;;;3.97;;
52041;SDS011;38052;45.944;13.624;2023-04-24T11:10:32;6.38;;;4.20;;
52041;SDS011;38052;45.944;13.624;2023-04-24T11:12:59;4.43;;;3.35;;
52041;SDS011;38052;45.944;13.624;2023-04-24T11:15:28;6.93;;;3.72;;
52041;SDS011;38052;45.944;13.624;2023-04-24T11:17:55;5.18;;;3.50;;
52041;SDS011;38052;45.944;13.624;2023-04-24T11:20:22;10.40;;;5.32;;
52041;SDS011;38052;45.944;13.624;2023-04-24T11:22:50;5.57;;;4.55;;
52041;SDS011;38052;45.944;13.624;2023-04-24T11:25:20;5.50;;;3.58;;
52041;SDS011;38052;45.944;13.624;2023-04-24T11:27:47;7.18;;;4.28;;
52041;SDS011;38052;45.944;13.624;2023-04-24T11:30:19;6.07;;;3.85;;
52041;SDS011;38052;45.944;13.624;2023-04-24T11:32:49;8.05;;;5.05;;
52041;SDS011;38052;45.944;13.624;2023-04-24T11:35:22;4.57;;;3.60;;
52041;SDS011;38052;45.944;13.624;2023-04-24T11:38:05;5.57;;;3.83;;
52041;SDS011;38052;45.944;13.624;2023-04-24T11:40:32;4.15;;;1.83;;
52041;SDS011;38052;45.944;13.624;2023-04-24T11:42:59;9.25;;;3.22;;
52041;SDS011;38052;45.944;13.624;2023-04-24T11:45:27;4.78;;;2.10;;
52041;SDS011;38052;45.944;13.624;2023-04-24T11:47:53;5.53;;;2.70;;
52041;SDS011;38052;45.944;13.624;2023-04-24T11:50:21;4.40;;;2.17;;
52041;SDS011;38052;45.944;13.624;2023-04-24T11:52:48;4.75;;;1.80;;
52041;SDS011;38052;45.944;13.624;2023-04-24T11:57:59;3.10;;;0.80;;
52041;SDS011;38052;45.944;13.624;2023-04-24T12:00:27;3.45;;;0.80;;
52041;SDS011;38052;45.944;13.624;2023-04-24T12:03:09;2.92;;;0.47;;
52041;SDS011;38052;45.944;13.624;2023-04-24T12:05:36;2.47;;;0.50;;
52041;SDS011;38052;45.944;13.624;2023-04-24T12:08:02;1.60;;;0.32;;
52041;SDS011;38052;45.944;13.624;2023-04-24T12:10:30;0.75;;;0.38;;
52041;SDS011;38052;45.944;13.624;2023-04-24T12:12:57;1.08;;;0.30;;
52041;SDS011;38052;45.944;13.624;2023-04-24T12:15:23;0.80;;;0.25;;
52041;SDS011;38052;45.944;13.624;2023-04-24T12:17:50;0.80;;;0.28;;
52041;SDS011;38052;45.944;13.624;2023-04-24T12:20:17;1.73;;;0.50;;
52041;SDS011;38052;45.944;13.624;2023-04-24T12:22:44;3.22;;;0.75;;
52041;SDS011;38052;45.944;13.624;2023-04-24T12:25:11;0.52;;;0.20;;
52041;SDS011;38052;45.944;13.624;2023-04-24T12:27:37;0.40;;;0.10;;
52041;SDS011;38052;45.944;13.624;2023-04-24T12:30:04;1.05;;;0.50;;
52041;SDS011;38052;45.944;13.624;2023-04-24T12:32:31;1.27;;;0.10;;
52041;SDS011;38052;45.944;13.624;2023-04-24T12:34:58;3.30;;;0.32;;
52041;SDS011;38052;45.944;13.624;2023-04-24T12:37:25;1.75;;;0.40;;
52041;SDS011;38052;45.944;13.624;2023-04-24T12:40:02;0.75;;;0.20;;
52041;SDS011;38052;45.944;13.624;2023-04-24T12:42:29;0.60;;;0.20;;
52041;SDS011;38052;45.944;13.624;2023-04-24T12:44:56;2.28;;;0.20;;
52041;SDS011;38052;45.944;13.624;2023-04-24T12:47:24;0.38;;;0.10;;
52041;SDS011;38052;45.944;13.624;2023-04-24T12:49:50;2.38;;;0.22;;
52041;SDS011;38052;45.944;13.624;2023-04-24T12:52:18;0.95;;;0.22;;
52041;SDS011;38052;45.944;13.624;2023-04-24T12:54:45;2.92;;;0.30;;
52041;SDS011;38052;45.944;13.624;2023-04-24T12:57:11;2.53;;;0.20;;
52041;SDS011;38052;45.944;13.624;2023-04-24T12:59:38;1.38;;;0.35;;
52041;SDS011;38052;45.944;13.624;2023-04-24T13:02:04;1.08;;;0.30;;
52041;SDS011;38052;45.944;13.624;2023-04-24T13:04:31;2.55;;;0.28;;
52041;SDS011;38052;45.944;13.624;2023-04-24T13:06:57;1.38;;;0.20;;
52041;SDS011;38052;45.944;13.624;2023-04-24T13:09:23;1.15;;;0.30;;
52041;SDS011;38052;45.944;13.624;2023-04-24T13:11:49;0.52;;;0.10;;
52041;SDS011;38052;45.944;13.624;2023-04-24T13:14:16;1.45;;;0.20;;
52041;SDS011;38052;45.944;13.624;2023-04-24T13:16:43;3.55;;;0.30;;
52041;SDS011;38052;45.944;13.624;2023-04-24T13:19:09;1.20;;;0.60;;
52041;SDS011;38052;45.944;13.624;2023-04-24T13:21:35;1.08;;;0.35;;
52041;SDS011;38052;45.944;13.624;2023-04-24T13:24:01;2.22;;;0.40;;
52041;SDS011;38052;45.944;13.624;2023-04-24T13:26:29;1.13;;;0.38;;
52041;SDS011;38052;45.944;13.624;2023-04-24T13:28:56;1.45;;;0.38;;
52041;SDS011;38052;45.944;13.624;2023-04-24T13:31:22;1.55;;;0.47;;
52041;SDS011;38052;45.944;13.624;2023-04-24T13:33:49;1.30;;;0.40;;
52041;SDS011;38052;45.944;13.624;2023-04-24T13:36:15;1.40;;;0.43;;
52041;SDS011;38052;45.944;13.624;2023-04-24T13:38:44;2.30;;;0.20;;
52041;SDS011;38052;45.944;13.624;2023-04-24T13:41:10;1.00;;;0.20;;
52041;SDS011;38052;45.944;13.624;2023-04-24T13:43:37;1.45;;;0.35;;
52041;SDS011;38052;45.944;13.624;2023-04-24T13:46:03;0.45;;;0.10;;
52041;SDS011;38052;45.944;13.624;2023-04-24T13:48:30;1.60;;;0.10;;
52041;SDS011;38052;45.944;13.624;2023-04-24T13:50:56;1.75;;;0.55;;
52041;SDS011;38052;45.944;13.624;2023-04-24T13:53:23;1.38;;;0.50;;
52041;SDS011;38052;45.944;13.624;2023-04-24T13:55:49;2.17;;;0.40;;
52041;SDS011;38052;45.944;13.624;2023-04-24T13:58:15;1.85;;;0.40;;
52041;SDS011;38052;45.944;13.624;2023-04-24T14:00:41;3.28;;;0.38;;
52041;SDS011;38052;45.944;13.624;2023-04-24T14:03:08;2.00;;;0.73;;
52041;SDS011;38052;45.944;13.624;2023-04-24T14:05:34;2.25;;;0.80;;
52041;SDS011;38052;45.944;13.624;2023-04-24T14:08:01;1.17;;;0.38;;
52041;SDS011;38052;45.944;13.624;2023-04-24T14:10:28;2.30;;;0.45;;
52041;SDS011;38052;45.944;13.624;2023-04-24T14:12:54;2.13;;;0.45;;
52041;SDS011;38052;45.944;13.624;2023-04-24T14:15:20;0.85;;;0.25;;
52041;SDS011;38052;45.944;13.624;2023-04-24T14:17:47;3.17;;;0.40;;
52041;SDS011;38052;45.944;13.624;2023-04-24T14:20:15;0.60;;;0.20;;
52041;SDS011;38052;45.944;13.624;2023-04-24T14:22:41;1.42;;;0.52;;
52041;SDS011;38052;45.944;13.624;2023-04-24T14:25:07;1.08;;;0.75;;
52041;SDS011;38052;45.944;13.624;2023-04-24T14:27:33;3.75;;;0.63;;
52041;SDS011;38052;45.944;13.624;2023-04-24T14:30:00;2.60;;;0.70;;
52041;SDS011;38052;45.944;13.624;2023-04-24T14:32:26;2.58;;;0.95;;
52041;SDS011;38052;45.944;13.624;2023-04-24T14:34:53;2.35;;;0.73;;
52041;SDS011;38052;45.944;13.624;2023-04-24T14:37:19;2.45;;;0.95;;
52041;SDS011;38052;45.944;13.624;2023-04-24T14:39:46;4.72;;;1.02;;